createdAt,value
2019-03-21T00:01:38.794Z,18.40
2019-03-21T00:11:58.774Z,16.00
2019-03-21T00:22:04.442Z,26.77
2019-03-21T00:32:10.291Z,21.70
2019-03-21T00:42:16.160Z,24.18
2019-03-21T00:52:22.002Z,17.25
2019-03-21T01:02:27.835Z,17.02
2019-03-21T01:12:33.922Z,14.90
2019-03-21T01:22:39.529Z,19.35
2019-03-21T01:32:45.150Z,17.23
2019-03-21T01:42:50.759Z,24.98
2019-03-21T01:52:56.638Z,17.50
2019-03-21T02:03:02.480Z,20.62
2019-03-21T02:13:08.073Z,21.82
2019-03-21T02:23:13.670Z,17.73
2019-03-21T02:33:22.494Z,13.78
2019-03-21T02:43:28.109Z,15.23
2019-03-21T02:53:33.731Z,14.20
2019-03-21T03:03:39.311Z,17.50
2019-03-21T03:13:46.640Z,16.02
2019-03-21T03:23:52.471Z,14.85
2019-03-21T03:33:58.316Z,14.65
2019-03-21T03:44:03.973Z,14.93
2019-03-21T03:54:10.656Z,14.95
2019-03-21T04:04:16.265Z,13.65
2019-03-21T04:14:21.857Z,11.43
2019-03-21T04:24:27.809Z,13.58
2019-03-21T04:34:33.415Z,16.00
2019-03-21T04:44:39.002Z,13.83
2019-03-21T04:54:44.663Z,12.25
2019-03-21T05:04:50.235Z,10.58
2019-03-21T05:14:55.856Z,12.13
2019-03-21T05:25:01.760Z,14.53
2019-03-21T05:35:07.729Z,13.32
2019-03-21T05:45:13.908Z,11.50
2019-03-21T05:55:19.524Z,11.12
2019-03-21T06:05:25.302Z,14.47
2019-03-21T06:15:31.977Z,11.75
2019-03-21T06:26:03.808Z,13.35
2019-03-21T06:36:09.434Z,10.98
2019-03-21T06:46:15.375Z,13.98
2019-03-21T06:56:21.031Z,15.03
2019-03-21T07:06:26.629Z,14.78
2019-03-21T07:16:32.320Z,14.78
2019-03-21T07:26:37.952Z,13.65
2019-03-21T07:36:43.835Z,12.50
2019-03-21T07:46:49.522Z,17.40
2019-03-21T07:56:55.239Z,13.13
2019-03-21T08:07:00.948Z,10.80
2019-03-21T08:17:06.542Z,12.37
2019-03-21T08:27:12.639Z,12.37
2019-03-21T08:37:18.373Z,14.70
2019-03-21T08:47:24.166Z,11.75
2019-03-21T08:57:30.003Z,12.53
2019-03-21T09:07:35.611Z,17.15
2019-03-21T09:17:41.807Z,13.65
2019-03-21T09:27:47.648Z,12.23
2019-03-21T09:37:53.246Z,11.18
2019-03-21T09:47:59.227Z,15.85
2019-03-21T09:58:05.278Z,16.95
2019-03-21T10:08:10.950Z,15.98
2019-03-21T10:18:16.678Z,16.32
2019-03-21T10:28:22.819Z,16.35
2019-03-21T10:38:28.471Z,15.78
2019-03-21T10:48:34.422Z,14.18
2019-03-21T10:58:40.092Z,16.27
2019-03-21T11:08:46.417Z,14.23
2019-03-21T11:18:52.106Z,13.45
2019-03-21T11:28:57.718Z,10.45
2019-03-21T11:39:04.991Z,6.35
2019-03-21T11:49:10.896Z,8.38
2019-03-21T11:59:16.494Z,9.78
2019-03-21T12:09:22.604Z,12.37
2019-03-21T12:19:28.430Z,12.25
2019-03-21T12:29:34.430Z,9.23
2019-03-21T12:39:40.135Z,6.67
2019-03-21T12:49:46.114Z,8.95
2019-03-21T12:59:51.854Z,10.80
2019-03-21T13:09:57.580Z,11.55
2019-03-21T13:20:03.940Z,10.38
2019-03-21T13:30:09.840Z,10.23
2019-03-21T13:40:15.642Z,9.57
2019-03-21T13:50:21.309Z,9.73
2019-03-21T14:00:27.331Z,9.63
2019-03-21T14:10:32.955Z,9.50
2019-03-21T14:20:38.689Z,13.33
2019-03-21T14:30:44.315Z,10.37
2019-03-21T14:40:50.263Z,11.27
2019-03-21T14:50:56.148Z,10.70
2019-03-21T15:01:01.846Z,11.35
2019-03-21T15:11:16.575Z,10.82
2019-03-21T15:21:14.814Z,12.53
2019-03-21T15:31:20.432Z,11.95
2019-03-21T15:41:26.538Z,10.88
2019-03-21T16:01:37.164Z,10.95
2019-03-21T16:11:43.263Z,11.05
2019-03-21T16:21:48.938Z,10.80
2019-03-21T16:31:54.783Z,12.10
2019-03-21T16:42:00.415Z,11.90
2019-03-21T16:52:06.273Z,8.28
2019-03-21T17:02:11.966Z,12.43
2019-03-21T17:12:17.921Z,16.62
2019-03-21T17:22:24.217Z,13.60
2019-03-21T17:32:30.239Z,15.65
2019-03-21T17:42:35.966Z,13.48
2019-03-21T17:52:41.638Z,12.78
2019-03-21T18:02:47.942Z,11.35
2019-03-21T18:12:53.755Z,17.20
2019-03-21T18:23:00.114Z,21.15
2019-03-21T18:33:05.735Z,17.10
2019-03-21T18:43:11.733Z,23.67
2019-03-21T18:53:17.428Z,32.50
2019-03-21T19:03:23.118Z,34.53
2019-03-21T19:13:29.487Z,35.90
2019-03-21T19:23:35.196Z,38.95
2019-03-21T19:33:41.167Z,35.90
2019-03-21T19:43:46.903Z,29.35
2019-03-21T19:53:52.616Z,29.48
2019-03-21T20:03:58.594Z,23.55
2019-03-21T20:14:04.575Z,26.45
2019-03-21T20:24:10.686Z,41.48
2019-03-21T20:34:16.578Z,29.20
2019-03-21T20:44:22.577Z,27.10
2019-03-21T20:54:29.239Z,29.72
2019-03-21T21:04:35.317Z,30.88
2019-03-21T21:14:40.927Z,33.95
2019-03-21T21:24:46.552Z,37.13
2019-03-21T21:34:54.442Z,35.08
2019-03-21T21:44:59.569Z,41.83
2019-03-21T21:55:05.973Z,39.98
2019-03-21T22:05:11.855Z,38.65
2019-03-21T22:15:17.559Z,30.90
2019-03-21T22:25:23.421Z,33.45
2019-03-21T22:35:29.139Z,33.05
2019-03-21T22:45:34.905Z,29.63
2019-03-21T22:55:41.096Z,30.25
2019-03-21T23:05:47.036Z,28.50
2019-03-21T23:15:52.652Z,27.80
2019-03-21T23:25:58.259Z,33.90
2019-03-21T23:36:04.538Z,30.35
2019-03-21T23:46:10.703Z,36.35
2019-03-21T23:56:16.394Z,26.15
